Time;durP1;ratioP1;P1;durP2;ratioP2;P2;SDS_P1;SDS_P2;PMS_P1;PMS_P2;Temp;Humidity;BMP_temperature;BMP_pressure;BME280_temperature;BME280_humidity;BME280_pressure;Samples;Min_cycle;Max_cycle;Signal;HPM_P1;HPM_P2
2022/12/30 00:00:45;;;;;;;4.28;1.95;;;6.70;99.90;;;5.61;100.00;97216.38;5032759;28;20414;-75
2022/12/30 00:03:11;;;;;;;3.80;1.90;;;6.70;99.90;;;5.67;100.00;97212.84;5014605;28;20403;-76
2022/12/30 00:05:36;;;;;;;4.28;2.35;;;6.70;99.90;;;5.62;100.00;97221.41;5039918;28;20502;-75
2022/12/30 00:08:45;;;;;;;12.48;4.00;;;6.70;99.90;;;5.65;100.00;97214.88;5041360;28;20415;-76
2022/12/30 00:10:50;;;;;;;12.90;4.40;;;6.80;99.90;;;5.63;100.00;97225.63;5040357;28;20454;-75
2022/12/30 00:33:09;;;;;;;3.38;1.80;;;6.60;99.90;;;5.47;100.00;97241.19;5030808;28;20482;-76
2022/12/30 00:35:37;;;;;;;3.13;1.92;;;6.60;99.90;;;5.41;100.00;97235.78;5031423;28;20415;-76
2022/12/30 00:38:03;;;;;;;3.23;2.00;;;6.50;99.90;;;5.42;100.00;97247.09;5031835;28;20434;-76
2022/12/30 00:40:30;;;;;;;3.60;1.80;;;6.50;99.90;;;5.48;100.00;97246.22;5031904;28;20943;-76
2022/12/30 00:43:08;;;;;;;5.32;2.00;;;6.60;99.90;;;5.50;100.00;97246.00;5030517;28;20926;-76
2022/12/30 00:45:38;;;;;;;2.70;1.67;;;6.60;99.90;;;5.48;100.00;97248.84;5031863;28;20881;-76
2022/12/30 00:56:21;;;;;;;4.28;1.63;;;6.60;99.90;;;5.38;100.00;97238.88;5031198;28;20395;-76
2022/12/30 00:58:47;;;;;;;2.95;1.70;;;6.50;99.90;;;5.28;100.00;97235.97;5031400;28;20406;-77
2022/12/30 01:01:13;;;;;;;5.68;1.92;;;6.40;99.90;;;5.27;100.00;97242.22;5030558;28;20403;-76
2022/12/30 01:03:39;;;;;;;4.18;1.77;;;6.40;99.90;;;5.25;100.00;97246.13;5030615;28;20915;-77
2022/12/30 01:06:06;;;;;;;4.00;1.87;;;6.40;99.90;;;5.23;100.00;97246.34;5030995;28;20936;-76
2022/12/30 01:08:33;;;;;;;3.50;1.90;;;6.40;99.90;;;5.24;100.00;97247.94;5030911;28;20410;-76
2022/12/30 01:10:59;;;;;;;4.00;2.00;;;6.40;99.90;;;5.21;100.00;97260.69;5030936;28;20527;-76
2022/12/30 01:13:26;;;;;;;3.80;1.90;;;6.40;99.90;;;5.21;100.00;97263.31;5011223;28;20920;-76
2022/12/30 01:15:52;;;;;;;5.00;2.00;;;6.40;99.90;;;5.21;100.00;97273.81;5030711;28;20418;-76
2022/12/30 01:18:18;;;;;;;2.67;1.70;;;6.40;99.90;;;5.19;100.00;97281.88;5030976;28;20911;-76
2022/12/30 01:20:44;;;;;;;5.15;2.28;;;6.40;99.90;;;5.17;100.00;97289.19;5030642;28;20407;-76
2022/12/30 01:23:10;;;;;;;5.03;2.13;;;6.30;99.90;;;5.15;100.00;97280.72;5029895;28;20446;-76
2022/12/30 01:25:39;;;;;;;3.97;1.93;;;6.40;99.90;;;5.13;100.00;97280.16;5030522;28;20472;-76
2022/12/30 01:28:05;;;;;;;2.95;1.80;;;6.30;99.90;;;5.13;100.00;97289.84;5030530;28;20399;-74
2022/12/30 01:30:32;;;;;;;7.75;1.98;;;6.30;99.90;;;5.15;100.00;97274.69;5030569;28;20413;-75
2022/12/30 01:32:59;;;;;;;3.03;1.80;;;6.30;99.90;;;5.13;100.00;97282.78;5029424;28;20404;-75
2022/12/30 01:35:24;;;;;;;5.05;2.13;;;6.30;99.90;;;5.19;100.00;97294.22;5030304;28;20415;-75
2022/12/30 01:37:50;;;;;;;9.50;2.40;;;6.30;99.90;;;5.03;100.00;97291.16;5030445;28;20486;-75
2022/12/30 01:40:16;;;;;;;4.43;2.10;;;6.20;99.90;;;4.95;100.00;97295.88;5030417;28;20959;-76
2022/12/30 01:42:42;;;;;;;8.02;2.40;;;6.10;99.90;;;4.97;100.00;97301.69;5029341;28;20410;-75
2022/12/30 01:45:20;;;;;;;8.80;2.35;;;6.10;99.90;;;4.88;100.00;97303.03;5030231;28;20431;-75
2022/12/30 01:47:55;;;;;;;7.78;2.83;;;6.00;99.90;;;4.81;100.00;97300.44;5030235;28;20470;-76
2022/12/30 01:50:33;;;;;;;9.80;2.28;;;6.00;99.90;;;4.77;100.00;97319.44;5030218;28;20931;-75
2022/12/30 01:53:06;;;;;;;6.37;2.70;;;5.90;99.90;;;4.75;100.00;97317.03;5029076;28;20402;-75
2022/12/30 01:55:37;;;;;;;9.77;2.80;;;5.90;99.90;;;4.72;100.00;97320.13;5030157;28;20455;-74
2022/12/30 01:58:09;;;;;;;7.07;2.90;;;5.90;99.90;;;4.67;100.00;97317.31;5030068;28;20448;-76
2022/12/30 02:00:35;;;;;;;5.97;2.30;;;5.80;99.90;;;4.53;100.00;97313.19;5030034;28;20417;-75
2022/12/30 02:03:04;;;;;;;6.97;2.65;;;5.70;99.90;;;4.56;100.00;97310.97;5028994;28;20478;-76
2022/12/30 02:05:35;;;;;;;7.27;2.37;;;5.70;99.90;;;4.50;100.00;97308.41;5029288;28;20439;-75
2022/12/30 02:08:08;;;;;;;10.73;2.65;;;5.70;99.90;;;4.52;100.00;97319.44;5029933;28;20453;-75
2022/12/30 02:10:38;;;;;;;8.27;2.60;;;5.70;99.90;;;4.38;100.00;97305.66;5029994;28;20413;-75
2022/12/30 02:13:04;;;;;;;7.45;2.50;;;5.60;99.90;;;4.34;100.00;97309.72;5028903;28;20391;-75
2022/12/30 02:15:42;;;;;;;6.35;2.60;;;5.50;99.90;;;4.36;100.00;97304.28;5029826;28;20415;-75
2022/12/30 02:18:21;;;;;;;7.38;2.42;;;5.50;99.90;;;4.35;100.00;97298.25;5029930;28;20399;-75
2022/12/30 02:21:33;;;;;;;5.07;2.65;;;5.50;99.90;;;4.28;100.00;97282.53;5029956;28;20459;-74
2022/12/30 02:24:46;;;;;;;5.40;2.72;;;5.50;99.90;;;4.24;100.00;97284.00;5029404;28;20441;-76
2022/12/30 02:27:40;;;;;;;7.63;2.93;;;5.50;99.90;;;4.20;100.00;97290.69;5029816;28;20491;-76
2022/12/30 02:30:18;;;;;;;5.30;2.60;;;5.40;99.90;;;4.17;100.00;97300.78;5016832;28;20610;-76
2022/12/30 02:33:10;;;;;;;11.13;3.33;;;5.40;99.90;;;4.08;100.00;97309.91;5028937;28;20900;-76
2022/12/30 02:35:49;;;;;;;4.28;2.60;;;5.30;99.90;;;4.06;100.00;97306.72;5029647;28;20472;-76
2022/12/30 02:38:28;;;;;;;6.15;2.78;;;5.30;99.90;;;4.04;100.00;97308.72;5029801;28;20435;-76
2022/12/30 02:46:43;;;;;;;5.47;2.60;;;5.20;99.90;;;3.85;100.00;97334.81;5049660;28;20432;-76
2022/12/30 02:49:12;;;;;;;11.57;3.78;;;5.10;99.90;;;3.87;100.00;97337.22;5049585;28;20560;-76
2022/12/30 02:54:24;;;;;;;7.25;3.20;;;5.00;99.90;;;3.69;100.00;97327.44;5049019;28;20457;-76
2022/12/30 02:56:52;;;;;;;10.35;3.63;;;4.90;99.90;;;3.71;100.00;97333.28;5049500;28;20393;-76
2022/12/30 03:05:34;;;;;;;11.52;3.58;;;4.80;99.90;;;3.45;100.00;97336.81;5028603;28;20931;-76
2022/12/30 03:08:15;;;;;;;8.05;3.40;;;4.70;99.90;;;3.39;100.00;97342.84;5029234;28;20464;-76
2022/12/30 03:13:37;;;;;;;8.38;3.70;;;4.70;99.90;;;3.34;100.00;97350.53;5028099;28;20450;-76
2022/12/30 03:16:10;;;;;;;9.98;3.60;;;4.60;99.90;;;3.28;100.00;97346.13;5030878;28;20463;-75
2022/12/30 03:18:38;;;;;;;9.85;3.42;;;4.60;99.90;;;3.31;100.00;97340.47;5033056;28;20809;-75
2022/12/30 03:21:07;;;;;;;6.15;3.30;;;4.60;99.90;;;3.31;100.00;97340.47;5033307;28;20472;-76
2022/12/30 03:29:10;;;;;;;9.88;3.47;;;4.60;99.90;;;3.26;100.00;97344.72;5032872;28;20448;-76
2022/12/30 03:31:36;;;;;;;8.13;3.10;;;4.50;99.90;;;3.27;100.00;97346.31;5032566;28;20450;-76
2022/12/30 03:34:02;;;;;;;13.00;3.60;;;4.50;99.90;;;3.30;100.00;97343.31;5032352;28;20410;-76
2022/12/30 03:36:36;;;;;;;8.48;3.60;;;4.50;99.90;;;3.24;100.00;97336.25;5032925;28;20403;-76
2022/12/30 03:39:10;;;;;;;9.85;3.65;;;4.50;99.90;;;3.21;100.00;97337.50;5032741;28;20896;-76
2022/12/30 03:41:37;;;;;;;7.20;3.30;;;4.40;99.90;;;3.17;100.00;97335.47;5032098;28;20547;-77
2022/12/30 03:44:03;;;;;;;7.45;3.22;;;4.40;99.90;;;3.21;100.00;97337.50;5082559;22;20471;-79
2022/12/30 03:46:32;;;;;;;6.05;2.90;;;4.40;99.90;;;3.19;100.00;97336.88;5054417;28;20403;-78
2022/12/30 03:48:58;;;;;;;6.00;2.75;;;4.50;99.90;;;3.19;100.00;97341.31;5072137;28;20451;-79
2022/12/30 03:51:24;;;;;;;10.07;3.37;;;4.50;99.90;;;3.24;100.00;97344.91;5071797;28;20410;-78
2022/12/30 03:53:52;;;;;;;5.90;2.80;;;4.50;99.90;;;3.19;100.00;97334.28;5071713;28;20408;-77
2022/12/30 03:56:18;;;;;;;6.03;2.90;;;4.50;99.90;;;3.17;100.00;97332.84;5072276;28;20499;-78
2022/12/30 03:58:43;;;;;;;9.18;3.40;;;4.50;99.90;;;3.21;100.00;97326.22;5071880;28;20738;-77
2022/12/30 04:01:10;;;;;;;6.95;2.85;;;4.40;99.90;;;3.15;100.00;97327.06;5071993;28;20833;-79
2022/12/30 04:03:36;;;;;;;8.18;3.10;;;4.40;99.90;;;3.14;100.00;97317.59;5070688;28;20908;-79
2022/12/30 04:06:01;;;;;;;5.40;2.80;;;4.40;99.90;;;3.13;100.00;97318.59;5071868;28;20400;-79
2022/12/30 04:08:27;;;;;;;6.47;2.90;;;4.40;99.90;;;3.09;100.00;97321.59;5071959;28;20499;-79
2022/12/30 04:10:54;;;;;;;5.32;2.50;;;4.40;99.90;;;3.08;100.00;97316.59;5071948;28;20775;-79
2022/12/30 04:13:20;;;;;;;6.47;2.90;;;4.40;99.90;;;3.08;100.00;97312.16;5070880;28;20411;-79
2022/12/30 04:15:48;;;;;;;5.70;2.90;;;4.30;99.90;;;3.06;100.00;97313.38;5071677;28;20418;-79
2022/12/30 04:18:14;;;;;;;6.85;2.85;;;4.30;99.90;;;3.10;100.00;97314.56;5072006;28;20399;-79
2022/12/30 04:20:40;;;;;;;8.15;2.88;;;4.30;99.90;;;3.14;100.00;97313.16;5071739;28;20404;-79
2022/12/30 04:23:06;;;;;;;7.35;3.25;;;4.40;99.90;;;3.11;100.00;97309.16;5069381;28;20785;-79
2022/12/30 04:25:32;;;;;;;4.53;3.00;;;4.40;99.90;;;3.09;100.00;97315.56;5071636;28;20491;-78
2022/12/30 04:27:59;;;;;;;9.20;3.30;;;4.30;99.90;;;3.07;100.00;97312.38;5070664;28;20404;-79
2022/12/30 04:30:25;;;;;;;8.97;2.93;;;4.30;99.90;;;3.06;100.00;97311.56;5070072;28;20407;-78
2022/12/30 04:32:51;;;;;;;4.50;3.00;;;4.30;99.90;;;3.01;100.00;97311.38;5070540;28;20399;-79
2022/12/30 04:35:17;;;;;;;6.10;2.87;;;4.30;99.90;;;3.01;100.00;97313.97;5071195;28;20506;-78
2022/12/30 04:37:43;;;;;;;6.05;2.70;;;4.30;99.90;;;3.00;100.00;97316.81;5071379;28;20548;-78
2022/12/30 04:40:10;;;;;;;4.93;3.10;;;4.30;99.90;;;3.00;100.00;97319.44;5071428;28;20785;-79
2022/12/30 04:42:35;;;;;;;10.65;3.20;;;4.20;99.90;;;2.98;100.00;97317.03;5070433;28;21236;-79
2022/12/30 04:45:03;;;;;;;7.50;3.17;;;4.20;99.90;;;2.95;100.00;97306.16;5071043;28;20494;-79
2022/12/30 04:47:29;;;;;;;8.18;3.33;;;4.20;99.90;;;2.96;100.00;97310.38;5071225;28;20737;-79
2022/12/30 04:49:55;;;;;;;8.25;2.72;;;4.20;99.90;;;2.89;100.00;97309.59;5071103;28;20403;-79
2022/12/30 04:52:21;;;;;;;6.57;3.08;;;4.20;99.90;;;2.89;100.00;97320.84;5070388;28;20447;-77
2022/12/30 04:54:47;;;;;;;5.97;3.53;;;4.10;99.90;;;2.89;100.00;97307.78;5069546;28;20476;-79
2022/12/30 04:57:13;;;;;;;5.63;2.97;;;4.10;99.90;;;2.81;100.00;97309.81;5070839;28;20431;-77
2022/12/30 04:59:39;;;;;;;7.90;3.17;;;4.00;99.90;;;2.75;100.00;97310.63;5071017;28;20435;-77
2022/12/30 05:02:06;;;;;;;7.32;3.17;;;4.00;99.90;;;2.73;100.00;97321.28;5070125;28;20425;-80
2022/12/30 05:04:32;;;;;;;10.00;3.25;;;4.00;99.90;;;2.72;100.00;97322.28;5070409;28;20411;-77
2022/12/30 05:06:58;;;;;;;4.78;3.15;;;3.90;99.90;;;2.66;100.00;97325.72;5070805;28;20495;-77
2022/12/30 05:09:24;;;;;;;6.43;2.90;;;3.90;99.90;;;2.62;100.00;97327.13;5070959;28;20904;-77
2022/12/30 05:11:50;;;;;;;11.23;3.50;;;3.90;99.90;;;2.62;100.00;97321.91;5068593;28;20812;-79
2022/12/30 05:14:15;;;;;;;6.87;3.07;;;3.90;99.90;;;2.54;100.00;97317.69;5070219;28;20422;-77
2022/12/30 05:16:41;;;;;;;5.72;2.80;;;3.80;99.90;;;2.53;100.00;97325.72;5075637;28;20405;-79
2022/12/30 05:19:09;;;;;;;7.43;3.35;;;3.80;99.90;;;2.53;100.00;97325.72;5089700;28;20787;-75
2022/12/30 05:21:35;;;;;;;7.35;3.15;;;3.80;99.90;;;2.53;100.00;97326.53;5053611;28;20494;-75
2022/12/30 05:26:45;;;;;;;5.68;3.08;;;3.80;99.90;;;2.49;100.00;97317.47;5055554;28;20711;-79
2022/12/30 05:29:11;;;;;;;6.80;2.67;;;3.80;99.90;;;2.48;100.00;97315.09;5050556;28;20412;-73
2022/12/30 05:31:37;;;;;;;8.02;3.40;;;3.70;99.90;;;2.52;100.00;97309.25;5063891;28;20407;-75
2022/12/30 05:34:03;;;;;;;4.18;2.78;;;3.80;99.90;;;2.56;100.00;97310.44;5062728;28;20400;-78
2022/12/30 05:36:30;;;;;;;8.67;3.33;;;3.80;99.90;;;2.55;100.00;97319.28;5059293;28;20440;-77
2022/12/30 05:38:56;;;;;;;4.00;3.00;;;3.80;99.90;;;2.61;100.00;97320.28;5063907;28;20418;-78
2022/12/30 05:41:22;;;;;;;6.20;3.30;;;3.80;99.90;;;2.62;100.00;97329.75;5065956;28;20450;-77
2022/12/30 05:43:48;;;;;;;4.78;2.97;;;3.90;99.90;;;2.64;100.00;97322.47;5059570;28;20407;-77
2022/12/30 05:46:15;;;;;;;6.40;3.08;;;3.80;99.90;;;2.69;100.00;97330.53;5066684;28;20449;-77
2022/12/30 05:48:41;;;;;;;7.25;3.30;;;3.90;99.90;;;2.73;100.00;97332.53;5066897;28;20927;-77
2022/12/30 05:51:07;;;;;;;6.05;2.97;;;4.00;99.90;;;2.66;100.00;97323.09;5057285;28;20692;-76
2022/12/30 05:53:35;;;;;;;7.20;3.23;;;3.90;99.90;;;2.65;100.00;97327.50;5065637;28;21015;-77
2022/12/30 05:56:01;;;;;;;7.75;2.95;;;3.90;99.90;;;2.62;100.00;97321.91;5060179;28;20429;-77
2022/12/30 05:58:26;;;;;;;5.68;3.30;;;3.90;99.90;;;2.57;100.00;97316.47;5059290;28;20409;-77
2022/12/30 06:00:52;;;;;;;5.95;3.00;;;3.90;99.90;;;2.53;100.00;97318.69;5056739;28;20466;-77
2022/12/30 06:03:18;;;;;;;6.78;3.47;;;3.80;99.90;;;2.57;100.00;97322.50;5063154;28;20512;-77
2022/12/30 06:05:44;;;;;;;4.20;2.90;;;3.80;99.90;;;2.45;100.00;97318.09;5056460;28;20403;-77
2022/12/30 06:08:10;;;;;;;4.15;2.90;;;3.70;99.90;;;2.43;100.00;97312.25;5059419;28;20433;-77
2022/12/30 06:10:37;;;;;;;5.90;2.93;;;3.70;99.90;;;2.43;100.00;97326.13;5045680;28;20421;-77
2022/12/30 06:13:03;;;;;;;9.65;4.30;;;3.70;99.90;;;2.43;100.00;97325.31;5051909;28;20401;-78
2022/12/30 06:15:29;;;;;;;8.93;3.83;;;3.70;99.90;;;2.34;100.00;97329.91;5064962;28;20443;-76
2022/12/30 06:17:55;;;;;;;8.68;3.90;;;3.60;99.90;;;2.36;100.00;97332.34;5057885;28;20478;-77
2022/12/30 06:20:21;;;;;;;9.18;3.78;;;3.60;99.90;;;2.31;100.00;97327.72;5058658;28;20401;-76
2022/12/30 06:22:49;;;;;;;6.37;3.27;;;3.60;99.90;;;2.28;100.00;97320.28;5065561;28;20400;-77
2022/12/30 06:25:15;;;;;;;7.03;3.38;;;3.50;99.90;;;2.22;100.00;97308.03;5065851;28;20761;-77
2022/12/30 06:27:42;;;;;;;5.20;3.17;;;3.50;99.90;;;2.20;100.00;97315.25;5060852;28;20740;-77
2022/12/30 06:30:10;;;;;;;9.40;3.50;;;3.50;99.90;;;2.26;100.00;97310.03;5066345;28;20853;-77
2022/12/30 06:32:36;;;;;;;4.53;3.40;;;3.50;99.90;;;2.27;100.00;97313.44;5065194;28;20453;-77
2022/12/30 06:35:02;;;;;;;7.22;3.58;;;3.50;99.90;;;2.27;100.00;97308.22;5065830;28;20525;-76
2022/12/30 06:37:28;;;;;;;10.57;3.92;;;3.50;99.90;;;2.31;100.00;97307.63;5064059;28;20958;-76
2022/12/30 06:39:54;;;;;;;7.43;3.55;;;3.60;99.90;;;2.30;100.00;97320.88;5065398;28;20416;-76
2022/12/30 06:42:20;;;;;;;4.20;3.27;;;3.50;99.90;;;2.22;100.00;97315.88;5055863;28;20769;-77
2022/12/30 06:44:47;;;;;;;6.85;3.10;;;3.50;99.90;;;2.23;100.00;97317.47;5065810;28;20757;-77
2022/12/30 06:47:13;;;;;;;6.32;3.50;;;3.50;99.90;;;2.23;100.00;97310.44;5055187;28;20467;-77
2022/12/30 06:49:39;;;;;;;6.55;3.92;;;3.50;99.90;;;2.21;100.00;97316.84;5066177;28;21138;-76
2022/12/30 06:52:04;;;;;;;7.10;3.50;;;3.50;99.90;;;2.18;100.00;97306.84;5062868;28;20539;-76
2022/12/30 06:54:30;;;;;;;5.72;3.25;;;3.40;99.90;;;2.12;100.00;97305.00;5066728;28;20413;-78
2022/12/30 06:56:56;;;;;;;9.07;3.55;;;3.40;99.90;;;2.11;100.00;97296.34;5069939;28;20495;-79
2022/12/30 06:59:22;;;;;;;7.93;3.83;;;3.40;99.90;;;2.09;100.00;97303.59;5069857;28;20980;-77
2022/12/30 07:01:49;;;;;;;8.30;4.10;;;3.40;99.90;;;2.14;100.00;97303.00;5069189;28;20769;-79
2022/12/30 07:04:15;;;;;;;5.55;3.20;;;3.40;99.90;;;2.08;100.00;97306.41;5063343;28;20388;-77
2022/12/30 07:06:41;;;;;;;9.00;3.50;;;3.40;99.90;;;2.08;100.00;97309.81;5069811;28;20430;-77
2022/12/30 07:09:07;;;;;;;6.47;3.70;;;3.40;99.90;;;2.12;100.00;97313.63;5062391;28;20410;-82
2022/12/30 07:11:33;;;;;;;8.52;3.70;;;3.40;99.90;;;2.10;100.00;97318.28;5063547;28;20477;-74
2022/12/30 07:13:58;;;;;;;7.10;3.50;;;3.40;99.90;;;2.02;100.00;97321.06;5068073;28;20507;-75
2022/12/30 07:16:25;;;;;;;4.78;3.15;;;3.30;99.90;;;2.04;100.00;97324.25;5060293;28;20510;-74
2022/12/30 07:18:52;;;;;;;7.28;3.42;;;3.30;99.90;;;2.03;100.00;97327.88;5061346;28;20401;-75
2022/12/30 07:21:19;;;;;;;7.00;3.70;;;3.30;99.90;;;2.00;100.00;97317.84;5067423;28;20780;-75
2022/12/30 07:23:45;;;;;;;8.82;3.45;;;3.30;99.90;;;2.10;100.00;97314.84;5055463;28;20474;-75
2022/12/30 07:26:10;;;;;;;9.50;4.00;;;3.30;99.90;;;2.06;100.00;97314.44;5069549;28;20922;-74
2022/12/30 07:28:36;;;;;;;5.18;2.95;;;3.30;99.90;;;2.06;100.00;97314.44;5054508;28;20473;-73
2022/12/30 07:31:02;;;;;;;8.17;3.53;;;3.30;99.90;;;2.07;100.00;97312.63;5059756;28;20405;-73
2022/12/30 07:33:28;;;;;;;5.97;2.92;;;3.40;99.90;;;2.06;100.00;97311.03;5067883;28;20408;-74
2022/12/30 07:35:55;;;;;;;5.00;3.27;;;3.40;99.90;;;2.07;100.00;97316.03;5055952;28;20414;-75
2022/12/30 07:38:21;;;;;;;4.05;2.83;;;3.30;99.90;;;2.10;100.00;97317.47;5064918;28;20409;-75
2022/12/30 07:40:47;;;;;;;6.97;3.40;;;3.40;99.90;;;2.10;100.00;97312.25;5063332;28;20408;-73
2022/12/30 07:43:13;;;;;;;4.15;3.20;;;3.40;99.90;;;2.04;100.00;97320.84;5056623;28;20413;-75
2022/12/30 07:45:39;;;;;;;7.05;3.47;;;3.30;99.90;;;2.07;100.00;97317.84;5050784;28;20412;-75
2022/12/30 07:48:05;;;;;;;5.72;3.30;;;3.30;99.90;;;2.07;100.00;97313.44;5057165;28;20427;-77
2022/12/30 07:50:31;;;;;;;6.03;3.33;;;3.40;99.90;;;2.15;100.00;97315.06;5063665;28;20480;-77
2022/12/30 07:52:59;;;;;;;9.70;3.50;;;3.40;99.90;;;2.17;100.00;97313.06;5063278;28;20762;-77
2022/12/30 07:55:25;;;;;;;5.10;3.10;;;3.40;99.90;;;2.19;100.00;97317.06;5057169;28;20921;-75
2022/12/30 07:57:51;;;;;;;7.85;3.28;;;3.40;99.90;;;2.19;100.00;97306.59;5057967;28;20395;-75
2022/12/30 08:00:18;;;;;;;5.43;3.20;;;3.50;99.90;;;2.21;100.00;97304.63;5069678;28;20489;-75
2022/12/30 08:02:44;;;;;;;8.80;3.57;;;3.50;99.90;;;2.26;100.00;97314.44;5060732;28;20406;-76
2022/12/30 08:05:10;;;;;;;5.63;3.13;;;3.50;99.90;;;2.24;100.00;97306.84;5060611;28;20401;-75
2022/12/30 08:07:36;;;;;;;6.25;3.60;;;3.50;99.90;;;2.27;100.00;97309.03;5063663;28;20446;-76
2022/12/30 08:10:04;;;;;;;10.82;3.65;;;3.50;99.90;;;2.33;100.00;97316.06;5046872;28;20781;-76
2022/12/30 08:12:30;;;;;;;10.25;3.80;;;3.60;99.90;;;2.36;100.00;97308.84;5061485;28;20811;-75
2022/12/30 08:14:56;;;;;;;10.75;4.75;;;3.60;99.90;;;2.34;100.00;97307.22;5063963;28;20448;-75
2022/12/30 08:17:22;;;;;;;7.72;5.10;;;3.60;99.90;;;2.33;100.00;97308.22;5065399;28;20423;-75
2022/12/30 08:19:48;;;;;;;8.07;4.40;;;3.60;99.90;;;2.35;100.00;97308.03;5065802;28;20481;-75
2022/12/30 08:22:14;;;;;;;10.02;4.40;;;3.70;99.90;;;2.39;100.00;97309.25;5062431;28;20450;-76
2022/12/30 08:24:42;;;;;;;7.40;4.32;;;3.70;99.90;;;2.44;100.00;97314.66;5062769;28;20820;-79
2022/12/30 08:27:21;;;;;;;9.30;4.30;;;3.70;99.90;;;2.48;100.00;97302.03;5048490;28;20785;-77
2022/12/30 08:29:47;;;;;;;8.52;4.20;;;3.70;99.90;;;2.52;100.00;97293.56;5066732;28;20408;-77
2022/12/30 08:32:13;;;;;;;10.52;5.45;;;3.80;99.90;;;2.62;100.00;97291.34;5060619;28;20401;-76
2022/12/30 08:34:39;;;;;;;10.30;5.97;;;3.80;99.90;;;2.72;100.00;97296.16;5070360;28;20926;-76
2022/12/30 08:37:05;;;;;;;12.67;6.27;;;3.90;99.90;;;2.78;100.00;97286.72;5064138;28;20457;-76
2022/12/30 08:39:31;;;;;;;10.90;6.05;;;4.00;99.90;;;2.85;100.00;97298.75;5061311;28;20415;-76
2022/12/30 08:41:57;;;;;;;13.35;6.75;;;4.10;99.90;;;2.90;100.00;97285.06;5059207;28;20435;-76
2022/12/30 08:44:24;;;;;;;10.68;6.07;;;4.10;99.90;;;2.94;100.00;97287.06;5061230;28;20553;-76
2022/12/30 08:46:51;;;;;;;12.82;6.80;;;4.10;99.90;;;2.99;100.00;97281.22;5061202;28;20717;-76
2022/12/30 08:49:17;;;;;;;13.82;7.45;;;4.20;99.90;;;3.03;100.00;97288.44;5059690;28;20407;-76
2022/12/30 08:51:43;;;;;;;12.67;7.23;;;4.20;99.90;;;3.11;100.00;97277.75;5060808;28;20791;-76
2022/12/30 08:54:09;;;;;;;16.02;7.70;;;4.30;99.90;;;3.15;100.00;97272.94;5042468;28;20779;-77
2022/12/30 08:56:37;;;;;;;13.13;7.07;;;4.30;99.90;;;3.20;100.00;97267.06;5059706;28;20408;-76
2022/12/30 08:59:03;;;;;;;14.65;8.90;;;4.40;99.90;;;3.24;100.00;97260.41;5059296;28;20405;-76
2022/12/30 09:01:33;;;;;;;16.70;8.20;;;4.40;99.90;;;3.27;100.00;97258.19;5055804;28;20404;-76
2022/12/30 09:04:00;;;;;;;15.73;8.50;;;4.50;99.90;;;3.30;100.00;97259.59;5045780;28;20445;-77
2022/12/30 09:06:29;;;;;;;18.42;10.40;;;4.40;99.90;;;3.36;100.00;97266.59;5058361;28;20898;-76
2022/12/30 09:08:58;;;;;;;13.57;8.07;;;4.50;99.90;;;3.39;100.00;97264.38;5049780;28;20523;-76
2022/12/30 09:11:29;;;;;;;17.13;7.63;;;4.60;99.90;;;3.44;100.00;97267.19;5059050;28;20446;-76
2022/12/30 09:13:55;;;;;;;13.47;7.00;;;4.60;99.90;;;3.49;100.00;97267.34;5067436;28;20764;-77
2022/12/30 09:16:21;;;;;;;15.03;7.53;;;4.70;99.90;;;3.56;100.00;97266.50;5068047;28;20441;-75
2022/12/30 09:18:49;;;;;;;13.20;7.43;;;4.70;99.90;;;3.62;100.00;97263.03;5069515;28;20407;-76
2022/12/30 09:21:16;;;;;;;10.85;6.88;;;4.70;99.90;;;3.68;100.00;97254.38;5063532;28;20436;-76
2022/12/30 09:23:42;;;;;;;11.10;6.70;;;4.80;99.90;;;3.78;100.00;97258.13;5066413;28;20758;-76
2022/12/30 09:26:13;;;;;;;16.92;6.80;;;4.90;99.90;;;3.79;100.00;97254.50;5051950;28;20403;-76
2022/12/30 09:28:38;;;;;;;9.82;5.95;;;4.90;99.90;;;3.91;100.00;97251.22;5067461;28;20965;-76
2022/12/30 09:31:05;;;;;;;11.10;5.43;;;5.00;99.90;;;4.00;100.00;97257.78;5069952;28;20410;-76
2022/12/30 09:33:31;;;;;;;8.98;4.90;;;5.10;99.90;;;4.03;100.00;97255.53;5068892;28;20407;-76
2022/12/30 09:35:58;;;;;;;9.15;4.72;;;5.10;99.90;;;4.14;100.00;97248.81;5067305;28;20498;-76
2022/12/30 09:38:25;;;;;;;9.13;4.07;;;5.20;99.90;;;4.12;100.00;97248.25;5069607;28;20403;-76
2022/12/30 09:40:57;;;;;;;7.32;4.05;;;5.20;99.90;;;4.22;100.00;97246.72;5069732;28;20400;-76
2022/12/30 09:43:32;;;;;;;5.72;3.17;;;5.30;99.90;;;4.33;100.00;97232.13;5070232;22;20819;-75
2022/12/30 09:46:21;;;;;;;8.00;3.28;;;5.40;99.90;;;4.36;100.00;97226.44;5047343;28;20535;-75
2022/12/30 09:48:54;;;;;;;6.95;3.30;;;5.40;99.90;;;4.40;100.00;97218.97;5048413;28;20408;-75
2022/12/30 09:51:40;;;;;;;8.48;3.20;;;5.50;99.90;;;4.47;100.00;97224.94;5047019;28;20417;-73
2022/12/30 09:54:13;;;;;;;6.23;2.90;;;5.60;99.90;;;4.53;100.00;97211.78;5047647;28;20397;-77
2022/12/30 09:56:42;;;;;;;6.05;2.85;;;5.60;99.90;;;4.65;100.00;97207.44;5047104;28;20432;-76
2022/12/30 09:59:17;;;;;;;7.23;2.83;;;5.70;99.90;;;4.80;100.00;97201.03;5049666;28;21101;-76
2022/12/30 10:01:44;;;;;;;5.53;2.42;;;5.80;99.90;;;5.04;100.00;97208.81;5047248;28;20651;-75
2022/12/30 10:04:15;;;;;;;6.28;2.40;;;6.00;99.90;;;5.23;100.00;97200.91;5046449;28;20401;-75
2022/12/30 10:06:55;;;;;;;5.85;2.00;;;6.30;99.90;;;5.86;100.00;97185.50;5047386;28;20584;-77
2022/12/30 10:09:37;;;;;;;4.95;1.80;;;6.80;99.90;;;6.14;100.00;97180.41;5047299;28;20472;-76
2022/12/30 10:12:37;;;;;;;2.42;1.50;;;7.20;99.90;;;6.34;100.00;97172.19;5044325;28;20578;-77
2022/12/30 10:15:32;;;;;;;6.30;1.70;;;7.40;99.90;;;7.00;100.00;97168.31;5048821;28;20914;-77
2022/12/30 10:18:44;;;;;;;3.67;1.40;;;7.90;99.90;;;7.53;100.00;97160.09;5043875;28;20420;-75
2022/12/30 10:21:26;;;;;;;5.53;1.50;;;8.50;99.90;;;7.89;100.00;97153.59;5037688;28;20451;-78
2022/12/30 10:24:11;;;;;;;4.05;1.42;;;8.90;99.90;;;8.69;100.00;97152.41;5046230;28;22013;-81
2022/12/30 10:26:44;;;;;;;6.70;1.60;;;9.40;99.90;;;8.54;100.00;97153.00;5047740;28;20921;-81
2022/12/30 10:29:16;;;;;;;3.60;1.55;;;9.60;99.90;;;8.77;100.00;97144.88;5044485;28;20413;-78
2022/12/30 10:31:45;;;;;;;3.53;1.48;;;9.80;99.90;;;9.19;100.00;97137.16;5043567;28;20421;-79
2022/12/30 10:34:14;;;;;;;4.20;1.30;;;10.10;99.90;;;9.48;100.00;97124.50;5027799;28;20405;-78
2022/12/30 10:36:48;;;;;;;2.30;1.20;;;10.40;99.90;;;9.22;100.00;97136.69;5043127;28;20448;-77
2022/12/30 10:39:19;;;;;;;5.25;1.30;;;10.00;99.90;;;9.40;100.00;97126.81;5046247;28;20834;-79
2022/12/30 10:42:17;;;;;;;2.80;1.30;;;10.30;99.90;;;9.84;100.00;97120.34;5048819;28;20429;-77
2022/12/30 10:45:04;;;;;;;2.33;1.10;;;10.60;99.90;;;10.30;100.00;97120.72;5047085;28;20597;-80
2022/12/30 10:47:50;;;;;;;1.83;1.05;;;11.20;99.90;;;10.67;100.00;97120.66;5048165;28;20416;-79
2022/12/30 10:50:29;;;;;;;1.40;1.30;;;11.60;99.90;;;11.17;100.00;97120.03;5049006;28;20941;-79
2022/12/30 10:52:55;;;;;;;2.57;1.10;;;12.00;99.90;;;10.98;100.00;97118.88;5048182;28;20397;-78
2022/12/30 10:55:26;;;;;;;3.80;1.30;;;12.00;99.90;;;10.96;100.00;97107.78;5049201;28;20416;-78
2022/12/30 10:57:58;;;;;;;1.60;1.20;;;11.90;99.90;;;10.95;100.00;97106.19;5049331;28;20934;-77
2022/12/30 11:00:25;;;;;;;2.13;1.10;;;12.00;99.90;;;11.09;100.00;97104.63;5047228;28;20768;-78
2022/12/30 11:03:00;;;;;;;3.65;1.30;;;12.10;99.90;;;11.12;100.00;97106.78;5048111;28;20398;-76
2022/12/30 11:05:33;;;;;;;3.22;1.10;;;12.10;99.90;;;11.07;100.00;97104.88;5047329;28;20409;-78
2022/12/30 11:08:01;;;;;;;2.95;1.17;;;12.00;99.90;;;10.80;100.00;97091.84;5046032;28;20441;-78
2022/12/30 11:10:30;;;;;;;1.95;1.23;;;11.80;99.90;;;10.57;100.00;97086.97;5048228;28;20413;-79
2022/12/30 11:15:56;;;;;;;2.10;1.48;;;11.40;99.90;;;10.40;100.00;97087.16;5048984;28;20833;-78
2022/12/30 11:18:27;;;;;;;2.97;1.57;;;11.40;99.90;;;10.12;100.00;97084.84;5048630;28;20393;-78
2022/12/30 11:20:56;;;;;;;5.15;1.45;;;11.10;99.90;;;9.84;100.00;97085.19;5048088;28;20393;-77
2022/12/30 11:23:29;;;;;;;3.33;1.40;;;10.80;99.90;;;9.58;100.00;97092.91;5048144;28;20448;-77
2022/12/30 11:25:58;;;;;;;1.95;1.10;;;10.60;99.90;;;9.80;100.00;97087.53;5044689;28;20421;-77
2022/12/30 11:28:28;;;;;;;2.05;1.30;;;10.70;99.90;;;9.93;100.00;97075.72;5045920;28;20393;-77